createdAt,value
2022-10-04T00:01:09.080Z,9.00
2022-10-04T00:03:43.649Z,9.00
2022-10-04T00:06:19.053Z,9.10
2022-10-04T00:08:51.656Z,9.00
2022-10-04T00:11:24.982Z,9.00
2022-10-04T00:13:57.007Z,9.00
2022-10-04T00:16:30.445Z,9.10
2022-10-04T00:19:24.385Z,8.90
2022-10-04T00:22:12.680Z,9.00
2022-10-04T00:25:23.969Z,9.00
2022-10-04T00:28:43.321Z,9.00
2022-10-04T00:31:14.936Z,8.90
2022-10-04T00:33:44.844Z,8.80
2022-10-04T00:36:48.381Z,8.80
2022-10-04T00:39:27.171Z,8.80
2022-10-04T00:42:27.694Z,8.80
2022-10-04T00:45:01.015Z,8.70
2022-10-04T00:47:33.209Z,8.70
2022-10-04T00:50:11.984Z,8.70
2022-10-04T00:52:46.368Z,8.70
2022-10-04T00:55:25.097Z,8.70
2022-10-04T00:57:59.368Z,8.60
2022-10-04T01:00:33.185Z,8.60
2022-10-04T01:03:05.193Z,8.60
2022-10-04T01:05:36.554Z,8.60
2022-10-04T01:08:10.430Z,8.60
2022-10-04T01:10:43.516Z,8.60
2022-10-04T01:13:15.087Z,8.50
2022-10-04T01:15:51.897Z,8.50
2022-10-04T01:18:30.630Z,8.50
2022-10-04T01:21:04.073Z,8.40
2022-10-04T01:23:41.837Z,8.40
2022-10-04T01:26:40.144Z,8.60
2022-10-04T01:29:12.037Z,8.60
2022-10-04T01:31:42.872Z,8.60
2022-10-04T01:34:14.705Z,8.50
2022-10-04T01:36:44.310Z,8.40
2022-10-04T01:39:15.011Z,8.40
2022-10-04T01:41:54.034Z,8.40
2022-10-04T01:44:28.985Z,8.40
2022-10-04T01:47:00.513Z,8.50
2022-10-04T01:49:32.465Z,8.50
2022-10-04T01:52:06.635Z,8.50
2022-10-04T01:54:38.666Z,8.60
2022-10-04T01:57:13.445Z,8.60
2022-10-04T01:59:44.572Z,8.60
2022-10-04T02:02:22.741Z,8.40
2022-10-04T02:04:54.992Z,8.30
2022-10-04T02:07:26.197Z,8.30
2022-10-04T02:09:59.530Z,8.40
2022-10-04T02:12:31.440Z,8.50
2022-10-04T02:15:02.332Z,8.30
2022-10-04T02:17:33.294Z,8.30
2022-10-04T02:20:02.973Z,8.20
2022-10-04T02:22:31.600Z,8.10
2022-10-04T02:25:01.273Z,8.10
2022-10-04T02:27:31.375Z,8.10
2022-10-04T02:30:04.835Z,8.10
2022-10-04T02:32:51.831Z,8.10
2022-10-04T02:35:21.123Z,8.20
2022-10-04T02:37:54.240Z,8.10
2022-10-04T02:40:30.226Z,8.20
2022-10-04T02:43:03.688Z,8.10
2022-10-04T02:45:42.365Z,8.10
2022-10-04T02:48:24.261Z,8.10
2022-10-04T02:50:56.513Z,8.10
2022-10-04T02:53:32.429Z,8.10
2022-10-04T02:56:04.014Z,8.10
2022-10-04T02:58:33.151Z,8.10
2022-10-04T03:01:02.034Z,8.20
2022-10-04T03:03:31.714Z,8.30
2022-10-04T03:06:03.957Z,8.20
2022-10-04T03:08:36.482Z,8.20
2022-10-04T03:11:06.885Z,8.10
2022-10-04T03:13:37.236Z,8.10
2022-10-04T03:16:07.119Z,8.10
2022-10-04T03:18:37.977Z,8.00
2022-10-04T03:21:09.665Z,8.00
2022-10-04T03:23:39.459Z,7.90
2022-10-04T03:26:19.486Z,8.00
2022-10-04T03:28:47.779Z,8.10
2022-10-04T03:31:17.048Z,8.10
2022-10-04T03:33:45.683Z,8.10
2022-10-04T03:36:16.771Z,8.10
2022-10-04T03:38:45.780Z,8.10
2022-10-04T03:41:16.538Z,8.10
2022-10-04T03:43:49.512Z,8.10
2022-10-04T03:46:19.879Z,7.90
2022-10-04T03:48:51.182Z,7.90
2022-10-04T03:51:22.773Z,8.00
2022-10-04T03:53:53.397Z,8.10
2022-10-04T03:56:28.434Z,8.00
2022-10-04T03:58:57.207Z,8.00
2022-10-04T04:01:41.523Z,8.10
2022-10-04T04:04:19.259Z,8.00
2022-10-04T04:06:54.971Z,8.00
2022-10-04T04:09:26.840Z,8.00
2022-10-04T04:11:58.808Z,8.10
2022-10-04T04:14:29.463Z,8.00
2022-10-04T04:17:18.937Z,8.00
2022-10-04T04:19:47.812Z,7.90
2022-10-04T04:22:18.147Z,7.90
2022-10-04T04:24:49.710Z,7.90
2022-10-04T04:27:22.440Z,8.00
2022-10-04T04:29:54.363Z,8.00
2022-10-04T04:32:28.494Z,7.90
2022-10-04T04:35:00.758Z,7.90
2022-10-04T04:37:29.029Z,7.80
2022-10-04T04:39:57.878Z,7.80
2022-10-04T04:42:31.841Z,7.90
2022-10-04T04:45:02.934Z,7.90
2022-10-04T04:47:34.310Z,7.90
2022-10-04T04:50:07.920Z,8.00
2022-10-04T04:52:37.271Z,7.90
2022-10-04T04:55:07.278Z,8.00
2022-10-04T04:57:39.997Z,8.00
2022-10-04T05:00:09.872Z,8.10
2022-10-04T05:02:39.345Z,8.20
2022-10-04T05:05:18.986Z,8.10
2022-10-04T05:07:47.559Z,8.10
2022-10-04T05:10:30.259Z,7.90
2022-10-04T05:13:01.832Z,7.90
2022-10-04T05:15:35.784Z,7.90
2022-10-04T05:18:14.232Z,7.90
2022-10-04T05:20:44.569Z,7.80
2022-10-04T05:23:14.304Z,7.70
2022-10-04T05:25:43.805Z,7.70
2022-10-04T05:28:15.291Z,7.70
2022-10-04T05:30:50.436Z,7.70
2022-10-04T05:33:25.589Z,7.70
2022-10-04T05:36:22.102Z,7.60
2022-10-04T05:38:54.663Z,7.70
2022-10-04T05:41:42.436Z,7.80
2022-10-04T05:44:27.639Z,7.60
2022-10-04T05:46:58.433Z,7.80
2022-10-04T05:49:30.457Z,7.90
2022-10-04T05:52:02.188Z,7.90
2022-10-04T05:54:33.125Z,7.90
2022-10-04T05:57:35.178Z,7.90
2022-10-04T06:00:12.979Z,8.00
2022-10-04T06:03:03.523Z,8.00
2022-10-04T06:05:44.043Z,8.10
2022-10-04T06:08:23.396Z,8.10
2022-10-04T06:11:04.714Z,8.20
2022-10-04T06:13:56.728Z,8.20
2022-10-04T06:16:38.702Z,8.20
2022-10-04T06:19:33.706Z,8.20
2022-10-04T06:22:16.763Z,8.30
2022-10-04T06:24:48.712Z,8.30
2022-10-04T06:27:22.321Z,8.30
2022-10-04T06:29:53.977Z,8.40
2022-10-04T06:32:49.927Z,8.40
2022-10-04T06:35:42.363Z,8.50
2022-10-04T06:38:39.496Z,8.60
2022-10-04T06:41:27.010Z,8.70
2022-10-04T06:44:14.423Z,8.70
2022-10-04T06:46:49.061Z,8.80
2022-10-04T06:49:38.375Z,8.90
2022-10-04T06:52:34.802Z,9.00
2022-10-04T06:55:38.007Z,9.30
2022-10-04T06:58:17.608Z,9.50
2022-10-04T07:00:53.942Z,9.70
2022-10-04T07:03:27.501Z,9.70
2022-10-04T07:06:01.134Z,9.80
2022-10-04T07:08:38.706Z,9.80
2022-10-04T07:11:15.131Z,9.90
2022-10-04T07:13:50.326Z,10.00
2022-10-04T07:16:31.034Z,10.00
2022-10-04T07:19:08.431Z,10.00
2022-10-04T07:21:46.486Z,10.10
2022-10-04T07:24:23.046Z,10.10
2022-10-04T07:26:53.544Z,10.20
2022-10-04T07:29:24.965Z,10.20
2022-10-04T07:32:05.661Z,10.30
2022-10-04T07:34:37.641Z,10.30
2022-10-04T07:37:12.901Z,10.40
2022-10-04T07:39:50.440Z,10.40
2022-10-04T07:42:26.553Z,10.50
2022-10-04T07:45:06.879Z,10.50
2022-10-04T07:47:35.341Z,10.60
2022-10-04T07:50:24.303Z,10.70
2022-10-04T07:52:58.806Z,10.80
2022-10-04T07:55:38.319Z,10.80
2022-10-04T07:58:34.865Z,10.90
2022-10-04T08:01:08.421Z,11.00
2022-10-04T08:03:53.319Z,11.10
2022-10-04T08:06:30.256Z,11.10
2022-10-04T08:09:24.414Z,11.20
2022-10-04T08:12:01.743Z,11.30
2022-10-04T08:14:41.187Z,11.50
2022-10-04T08:17:18.916Z,11.60
2022-10-04T08:19:58.712Z,11.60
2022-10-04T08:22:43.944Z,11.80
2022-10-04T08:25:22.437Z,12.10
2022-10-04T08:28:19.314Z,12.20
2022-10-04T08:31:05.430Z,12.40
2022-10-04T08:33:54.094Z,12.60
2022-10-04T08:36:34.064Z,12.60
2022-10-04T08:39:02.529Z,13.00
2022-10-04T08:42:01.866Z,13.20
2022-10-04T08:48:22.659Z,13.70
2022-10-04T08:51:21.026Z,14.70
2022-10-04T08:54:29.218Z,15.70
2022-10-04T08:57:06.637Z,16.50
2022-10-04T09:00:04.216Z,17.00
2022-10-04T09:03:15.125Z,17.40
2022-10-04T09:06:11.854Z,17.30
2022-10-04T09:09:28.487Z,18.70
2022-10-04T09:12:21.564Z,20.00
2022-10-04T09:15:13.731Z,20.20
2022-10-04T09:17:54.556Z,20.70
2022-10-04T09:20:39.175Z,21.10
2022-10-04T09:23:23.134Z,22.00
2022-10-04T09:26:06.514Z,22.70
2022-10-04T09:29:04.708Z,23.00
2022-10-04T09:32:07.118Z,22.80
2022-10-04T09:34:52.007Z,23.20
2022-10-04T09:37:44.693Z,22.60
2022-10-04T09:40:48.567Z,21.60
2022-10-04T09:43:50.165Z,20.80
2022-10-04T09:46:40.098Z,20.40
2022-10-04T09:49:22.954Z,19.90
2022-10-04T09:52:17.483Z,19.60
2022-10-04T09:55:12.491Z,19.70
2022-10-04T09:57:59.068Z,19.90
2022-10-04T10:00:33.276Z,20.40
2022-10-04T10:03:47.349Z,20.50
2022-10-04T10:06:40.761Z,21.10
2022-10-04T10:09:43.987Z,21.50
2022-10-04T10:12:54.056Z,22.10
2022-10-04T10:15:29.659Z,22.20
2022-10-04T10:18:10.094Z,23.40
2022-10-04T10:21:06.316Z,24.40
2022-10-04T10:24:03.635Z,25.80
2022-10-04T10:26:54.664Z,27.60
2022-10-04T10:30:04.389Z,27.80
2022-10-04T10:32:46.730Z,29.30
2022-10-04T10:35:24.616Z,31.10
2022-10-04T10:38:09.069Z,31.00
2022-10-04T10:40:48.507Z,31.70
2022-10-04T10:43:47.653Z,32.40
2022-10-04T10:46:42.636Z,32.50
2022-10-04T10:49:40.648Z,33.00
2022-10-04T10:52:40.719Z,34.00
2022-10-04T10:55:49.317Z,33.60
2022-10-04T10:58:44.669Z,33.40
2022-10-04T11:01:47.218Z,33.60
2022-10-04T11:04:54.236Z,33.40
2022-10-04T11:07:50.463Z,28.70
2022-10-04T11:11:06.619Z,25.90
2022-10-04T11:14:11.796Z,23.50
2022-10-04T11:17:04.372Z,22.60
2022-10-04T11:20:24.707Z,22.10
2022-10-04T11:23:38.032Z,21.60
2022-10-04T11:26:41.310Z,20.70
2022-10-04T11:29:24.763Z,20.60
2022-10-04T11:32:49.282Z,20.30
2022-10-04T11:35:47.363Z,20.50
2022-10-04T11:38:29.735Z,20.40
2022-10-04T11:41:14.775Z,20.50
2022-10-04T11:44:16.002Z,20.60
2022-10-04T11:46:51.188Z,20.70
2022-10-04T11:49:49.073Z,20.90
2022-10-04T11:52:51.455Z,20.80
2022-10-04T11:55:44.436Z,20.80
2022-10-04T11:58:19.143Z,20.60
2022-10-04T12:01:17.038Z,20.50
2022-10-04T12:04:16.988Z,20.60
2022-10-04T12:07:08.301Z,20.70
2022-10-04T12:09:43.307Z,20.50
2022-10-04T12:12:38.909Z,20.30
2022-10-04T12:15:36.250Z,20.40
2022-10-04T12:18:41.980Z,20.20
2022-10-04T12:21:39.054Z,20.30
2022-10-04T12:24:21.994Z,20.30
2022-10-04T12:27:20.195Z,20.30
2022-10-04T12:30:15.583Z,20.40
2022-10-04T12:33:03.488Z,20.30
2022-10-04T12:35:43.756Z,20.40
2022-10-04T12:38:47.230Z,20.20
2022-10-04T12:41:30.042Z,20.10
2022-10-04T12:44:08.862Z,20.20
2022-10-04T12:46:48.791Z,20.10
2022-10-04T12:49:29.619Z,20.20
2022-10-04T12:52:07.566Z,20.20
2022-10-04T12:54:40.261Z,20.20
2022-10-04T12:57:44.230Z,20.30
2022-10-04T13:00:19.599Z,20.40
2022-10-04T13:03:29.586Z,20.40
2022-10-04T13:06:07.385Z,20.40
2022-10-04T13:08:59.800Z,20.40
2022-10-04T13:11:52.304Z,20.40
2022-10-04T13:14:48.239Z,20.40
2022-10-04T13:17:35.950Z,20.30
2022-10-04T13:20:27.447Z,20.40
2022-10-04T13:22:59.986Z,20.30
2022-10-04T13:25:45.750Z,20.30
2022-10-04T13:28:23.169Z,20.30
2022-10-04T13:31:01.295Z,20.40
2022-10-04T13:33:40.361Z,20.40
2022-10-04T13:36:14.367Z,20.40
2022-10-04T13:39:24.804Z,20.40
2022-10-04T13:42:17.875Z,20.40
2022-10-04T13:45:04.329Z,20.40
2022-10-04T13:47:55.643Z,20.40
2022-10-04T13:50:48.739Z,20.20
2022-10-04T13:53:54.145Z,20.20
2022-10-04T13:56:46.834Z,20.30
2022-10-04T13:59:25.141Z,20.30
2022-10-04T14:02:39.508Z,20.30
2022-10-04T14:05:42.701Z,20.40
2022-10-04T14:08:37.833Z,20.40
2022-10-04T14:11:31.371Z,20.40
2022-10-04T14:14:24.256Z,20.40
2022-10-04T14:17:15.388Z,20.40
2022-10-04T14:20:25.675Z,20.40
2022-10-04T14:23:30.301Z,20.40
2022-10-04T14:26:23.589Z,20.40
2022-10-04T14:29:29.543Z,20.40
2022-10-04T14:32:20.868Z,20.30
2022-10-04T14:35:02.881Z,20.20
2022-10-04T14:37:58.854Z,20.20
2022-10-04T14:41:22.724Z,20.20
2022-10-04T14:44:17.348Z,20.30
2022-10-04T14:46:56.919Z,20.30
2022-10-04T14:49:46.286Z,20.30
2022-10-04T14:52:32.502Z,20.20
2022-10-04T14:55:14.215Z,20.20
2022-10-04T14:58:01.385Z,20.20
2022-10-04T15:00:38.321Z,20.20
2022-10-04T15:03:25.636Z,20.20
2022-10-04T15:06:29.478Z,20.20
2022-10-04T15:09:27.063Z,20.10
2022-10-04T15:12:25.431Z,20.20
2022-10-04T15:17:44.119Z,20.20
2022-10-04T15:20:23.034Z,20.20
2022-10-04T15:22:55.126Z,20.10
2022-10-04T15:25:42.010Z,20.10
2022-10-04T15:28:36.644Z,20.10
2022-10-04T15:31:11.733Z,20.10
2022-10-04T15:33:46.968Z,20.00
2022-10-04T15:36:39.638Z,20.00
2022-10-04T15:39:29.134Z,20.00
2022-10-04T15:42:07.683Z,20.00
2022-10-04T15:44:58.304Z,19.90
2022-10-04T15:47:31.324Z,19.90
2022-10-04T15:50:17.291Z,19.80
2022-10-04T15:53:07.436Z,19.80
2022-10-04T15:56:00.302Z,19.70
2022-10-04T15:58:58.920Z,19.70
2022-10-04T16:01:59.353Z,19.70
2022-10-04T16:04:42.873Z,19.60
2022-10-04T16:07:32.208Z,19.60
2022-10-04T16:10:07.980Z,19.60
2022-10-04T16:12:55.969Z,19.50
2022-10-04T16:15:33.929Z,19.50
2022-10-04T16:18:22.498Z,19.40
2022-10-04T16:21:06.130Z,19.30
2022-10-04T16:23:37.762Z,19.20
2022-10-04T16:26:09.584Z,19.20
2022-10-04T16:29:07.296Z,19.10
2022-10-04T16:31:47.597Z,19.10
2022-10-04T16:34:46.261Z,19.00
2022-10-04T16:37:21.874Z,18.90
2022-10-04T16:40:03.254Z,18.90
2022-10-04T16:42:53.156Z,18.80
2022-10-04T16:45:43.202Z,18.70
2022-10-04T16:48:25.257Z,18.60
2022-10-04T16:51:32.218Z,18.50
2022-10-04T16:54:10.573Z,18.40
2022-10-04T16:57:11.975Z,18.30
2022-10-04T16:59:53.259Z,18.30
2022-10-04T17:02:41.574Z,18.20
2022-10-04T17:05:48.456Z,18.10
2022-10-04T17:08:25.770Z,17.90
2022-10-04T17:11:14.541Z,17.90
2022-10-04T17:13:56.374Z,17.70
2022-10-04T17:16:36.976Z,17.60
2022-10-04T17:19:21.945Z,17.60
2022-10-04T17:22:06.831Z,17.50
2022-10-04T17:24:51.520Z,17.40
2022-10-04T17:27:44.906Z,17.40
2022-10-04T17:30:21.790Z,17.40
2022-10-04T17:33:20.225Z,17.20
2022-10-04T17:35:59.984Z,17.30
2022-10-04T17:38:37.607Z,17.20
2022-10-04T17:41:15.797Z,17.20
2022-10-04T17:44:03.153Z,17.20
2022-10-04T17:46:38.081Z,17.10
2022-10-04T17:49:34.808Z,17.20
2022-10-04T17:52:22.882Z,17.10
2022-10-04T17:55:13.828Z,17.10
2022-10-04T17:57:48.245Z,17.00
2022-10-04T18:00:18.745Z,16.90
2022-10-04T18:03:00.715Z,16.90
2022-10-04T18:05:35.322Z,16.90
2022-10-04T18:08:11.371Z,16.80
2022-10-04T18:10:47.185Z,16.70
2022-10-04T18:13:20.188Z,16.60
2022-10-04T18:15:55.899Z,16.50
2022-10-04T18:18:28.224Z,16.30
2022-10-04T18:21:20.265Z,16.30
2022-10-04T18:23:57.615Z,16.40
2022-10-04T18:26:29.248Z,16.50
2022-10-04T18:28:59.861Z,16.30
2022-10-04T18:31:42.237Z,16.20
2022-10-04T18:34:27.692Z,16.10
2022-10-04T18:37:06.586Z,16.00
2022-10-04T18:39:46.201Z,15.90
2022-10-04T18:42:21.538Z,15.90
2022-10-04T18:44:58.963Z,15.90
2022-10-04T18:47:34.367Z,15.80
2022-10-04T18:50:14.863Z,15.80
2022-10-04T18:52:54.323Z,16.00
2022-10-04T18:55:34.479Z,16.10
2022-10-04T18:58:29.352Z,16.10
2022-10-04T19:01:29.532Z,15.90
2022-10-04T19:04:03.767Z,15.60
2022-10-04T19:06:35.103Z,15.60
2022-10-04T19:09:13.529Z,15.30
2022-10-04T19:11:50.129Z,15.30
2022-10-04T19:14:29.279Z,15.20
2022-10-04T19:17:02.898Z,15.10
2022-10-04T19:19:43.369Z,15.10
2022-10-04T19:22:26.687Z,15.00
2022-10-04T19:25:10.686Z,14.90
2022-10-04T19:27:45.113Z,14.90
2022-10-04T19:30:20.821Z,14.90
2022-10-04T19:33:18.482Z,15.00
2022-10-04T19:35:57.400Z,15.10
2022-10-04T19:38:40.146Z,15.20
2022-10-04T19:41:20.876Z,15.40
2022-10-04T19:43:55.687Z,15.50
2022-10-04T19:46:36.136Z,15.50
2022-10-04T19:49:09.763Z,15.40
2022-10-04T19:51:43.848Z,15.40
2022-10-04T19:54:16.017Z,15.40
2022-10-04T19:56:48.924Z,15.40
2022-10-04T19:59:19.503Z,15.50
2022-10-04T20:01:53.127Z,15.40
2022-10-04T20:04:39.044Z,15.40
2022-10-04T20:07:18.907Z,15.30
2022-10-04T20:09:56.807Z,15.30
2022-10-04T20:12:36.765Z,15.20
2022-10-04T20:15:29.874Z,15.20
2022-10-04T20:17:58.686Z,15.10
2022-10-04T20:21:05.673Z,14.90
2022-10-04T20:23:56.796Z,14.70
2022-10-04T20:26:56.221Z,14.70
2022-10-04T20:29:56.102Z,14.80
2022-10-04T20:33:02.016Z,14.90
2022-10-04T20:36:06.847Z,15.00
2022-10-04T20:38:52.742Z,15.10
2022-10-04T20:42:22.680Z,15.10
2022-10-04T20:44:55.516Z,15.10
2022-10-04T20:47:43.477Z,15.20
2022-10-04T20:50:29.612Z,15.10
2022-10-04T20:53:00.739Z,15.10
2022-10-04T20:55:30.706Z,15.00
2022-10-04T20:58:02.658Z,15.00
2022-10-04T21:00:34.896Z,15.00
2022-10-04T21:03:11.308Z,15.00
2022-10-04T21:05:41.280Z,14.90
2022-10-04T21:08:26.520Z,14.80
2022-10-04T21:11:20.427Z,14.90
2022-10-04T21:13:59.768Z,14.90
2022-10-04T21:16:42.582Z,14.90
2022-10-04T21:19:50.499Z,14.80
2022-10-04T21:22:41.174Z,14.80
2022-10-04T21:25:33.496Z,14.80
2022-10-04T21:28:24.843Z,14.70
2022-10-04T21:30:53.042Z,14.60
2022-10-04T21:33:21.046Z,14.60
2022-10-04T21:35:51.413Z,14.60
2022-10-04T21:38:20.863Z,14.50
2022-10-04T21:40:49.045Z,14.60
2022-10-04T21:43:17.182Z,14.80
2022-10-04T21:45:45.288Z,14.80
2022-10-04T21:48:13.603Z,14.80
2022-10-04T21:50:42.005Z,14.80
2022-10-04T21:53:10.030Z,14.70
2022-10-04T21:55:39.491Z,14.60
2022-10-04T21:58:07.559Z,14.60
2022-10-04T22:00:35.595Z,14.60
2022-10-04T22:03:03.650Z,14.70
2022-10-04T22:05:31.705Z,14.60
2022-10-04T22:07:59.806Z,14.70
2022-10-04T22:10:28.029Z,14.70
2022-10-04T22:12:57.470Z,14.70
2022-10-04T22:15:27.373Z,14.70
2022-10-04T22:17:56.122Z,14.60
2022-10-04T22:20:25.445Z,14.40
2022-10-04T22:22:55.625Z,14.50
2022-10-04T22:25:25.578Z,14.70
2022-10-04T22:27:54.933Z,14.60
2022-10-04T22:30:27.435Z,14.60
2022-10-04T22:32:58.342Z,14.50
2022-10-04T22:35:26.441Z,14.50
2022-10-04T22:37:54.834Z,14.50
2022-10-04T22:40:24.411Z,14.50
2022-10-04T22:42:54.565Z,14.60
2022-10-04T22:45:27.011Z,14.50
2022-10-04T22:47:58.892Z,14.50
2022-10-04T22:50:33.036Z,14.40
2022-10-04T22:53:06.028Z,14.30
2022-10-04T22:55:35.571Z,14.20
2022-10-04T22:58:03.995Z,14.20
2022-10-04T23:00:33.415Z,14.20
2022-10-04T23:03:02.620Z,14.10
2022-10-04T23:05:30.665Z,14.00
2022-10-04T23:07:58.725Z,13.80
2022-10-04T23:10:26.784Z,13.60
2022-10-04T23:12:54.815Z,13.70
2022-10-04T23:15:22.866Z,13.50
2022-10-04T23:17:57.103Z,13.80
2022-10-04T23:20:25.535Z,14.00
2022-10-04T23:22:55.195Z,14.00
2022-10-04T23:25:27.797Z,14.00
2022-10-04T23:27:59.416Z,14.00
2022-10-04T23:30:27.833Z,14.10
2022-10-04T23:33:00.768Z,14.10
2022-10-04T23:35:32.550Z,14.10
2022-10-04T23:38:03.586Z,14.10
2022-10-04T23:40:31.635Z,14.10
2022-10-04T23:43:06.644Z,14.00
2022-10-04T23:45:41.643Z,14.00
2022-10-04T23:48:13.505Z,13.90
2022-10-04T23:50:42.318Z,13.90
2022-10-04T23:53:19.179Z,13.80
2022-10-04T23:55:47.664Z,13.80
2022-10-04T23:58:17.919Z,13.70
